createdAt,value
2017-02-11T00:00:06.236Z,927
2017-02-11T00:00:20.776Z,927
2017-02-11T00:00:35.311Z,927.03
2017-02-11T00:00:50.099Z,927.02
2017-02-11T00:01:04.666Z,927.01
2017-02-11T00:01:19.201Z,927.09
2017-02-11T00:01:33.757Z,927.02
2017-02-11T00:01:48.322Z,927.03
2017-02-11T00:02:02.869Z,927.04
2017-02-11T00:02:17.377Z,927.05
2017-02-11T00:02:31.917Z,927.05
2017-02-11T00:02:46.498Z,927.05
2017-02-11T00:03:01.048Z,927.03
2017-02-11T00:03:15.597Z,927.05
2017-02-11T00:03:30.123Z,927.05
2017-02-11T00:03:44.620Z,927.03
2017-02-11T00:03:59.359Z,927.07
2017-02-11T00:04:13.875Z,927.11
2017-02-11T00:04:28.406Z,927.07
2017-02-11T00:04:42.980Z,927.02
2017-02-11T00:04:57.559Z,927.06
2017-02-11T00:05:12.102Z,926.99
2017-02-11T00:05:26.703Z,927.01
2017-02-11T00:05:41.216Z,927.06
2017-02-11T00:05:55.762Z,927.02
2017-02-11T00:06:10.349Z,927.01
2017-02-11T00:06:24.857Z,927.02
2017-02-11T00:06:39.371Z,927.03
2017-02-11T00:06:53.896Z,927.07
2017-02-11T00:07:08.482Z,927.03
2017-02-11T00:07:23.019Z,927.03
2017-02-11T00:07:37.521Z,927.07
2017-02-11T00:07:52.092Z,927.09
2017-02-11T00:08:06.628Z,927.05
2017-02-11T00:08:21.204Z,927.05
2017-02-11T00:08:35.700Z,927.03
2017-02-11T00:08:50.240Z,927.1
2017-02-11T00:09:04.782Z,927.1
2017-02-11T00:09:19.326Z,927.09
2017-02-11T00:09:33.873Z,927.07
2017-02-11T00:09:48.432Z,927.11
2017-02-11T00:10:02.986Z,927.11
2017-02-11T00:10:17.556Z,927.11
2017-02-11T00:10:32.084Z,927.13
2017-02-11T00:10:46.667Z,927.09
2017-02-11T00:11:01.194Z,927.14
2017-02-11T00:11:15.719Z,927.13
2017-02-11T00:11:30.238Z,927.16
2017-02-11T00:11:44.817Z,927.15
2017-02-11T00:11:59.367Z,927.15
2017-02-11T00:12:13.934Z,927.11
2017-02-11T00:12:28.468Z,927.08
2017-02-11T00:12:42.977Z,927.09
2017-02-11T00:12:57.561Z,927.1
2017-02-11T00:13:12.073Z,927.09
2017-02-11T00:13:26.652Z,927.07
2017-02-11T00:13:41.214Z,927.08
2017-02-11T00:13:55.802Z,927.09
2017-02-11T00:14:10.383Z,927.06
2017-02-11T00:14:24.903Z,927.07
2017-02-11T00:14:39.426Z,927.1
2017-02-11T00:14:53.958Z,927.09
2017-02-11T00:15:08.525Z,927.06
2017-02-11T00:15:23.024Z,927.06
2017-02-11T00:15:37.647Z,927.07
2017-02-11T00:15:52.182Z,927.09
2017-02-11T00:16:06.748Z,927.02
2017-02-11T00:16:21.315Z,927.03
2017-02-11T00:16:35.833Z,927.02
2017-02-11T00:16:50.372Z,927.05
2017-02-11T00:17:04.871Z,927.05
2017-02-11T00:17:19.457Z,927.03
2017-02-11T00:17:34.065Z,927.05
2017-02-11T00:17:48.586Z,927.02
2017-02-11T00:18:03.195Z,927.05
2017-02-11T00:18:17.742Z,927.02
2017-02-11T00:18:32.328Z,927.02
2017-02-11T00:18:46.877Z,927.04
2017-02-11T00:19:01.377Z,927.02
2017-02-11T00:19:16.130Z,927.04
2017-02-11T00:19:30.700Z,927.06
2017-02-11T00:19:45.415Z,927.02
2017-02-11T00:19:59.926Z,927.08
2017-02-11T00:20:14.475Z,927.11
2017-02-11T00:20:29.082Z,927.06
2017-02-11T00:20:43.591Z,927.07
2017-02-11T00:20:58.136Z,927.06
2017-02-11T00:21:12.709Z,927.05
2017-02-11T00:21:27.299Z,927.09
2017-02-11T00:21:41.855Z,927.13
2017-02-11T00:21:56.405Z,927.08
2017-02-11T00:22:10.977Z,927.07
2017-02-11T00:22:25.547Z,927.08
2017-02-11T00:22:40.082Z,927.11
2017-02-11T00:22:54.648Z,927.13
2017-02-11T00:23:09.154Z,927.13
2017-02-11T00:23:23.690Z,927.15
2017-02-11T00:23:38.179Z,927.14
2017-02-11T00:23:52.727Z,927.17
2017-02-11T00:24:07.244Z,927.15
2017-02-11T00:24:21.764Z,927.11
2017-02-11T00:24:36.278Z,927.13
2017-02-11T00:24:50.784Z,927.09
2017-02-11T00:25:05.318Z,927.08
2017-02-11T00:25:19.848Z,927.09
2017-02-11T00:25:34.372Z,927.15
2017-02-11T00:25:48.881Z,927.09
2017-02-11T00:26:03.414Z,927.1
2017-02-11T00:26:17.935Z,927.1
2017-02-11T00:26:32.390Z,927.08
2017-02-11T00:26:46.977Z,927.09
2017-02-11T00:27:01.476Z,927.13
2017-02-11T00:27:16.055Z,927.12
2017-02-11T00:27:30.625Z,927.12
2017-02-11T00:27:45.228Z,927.11
2017-02-11T00:27:59.808Z,927.11
2017-02-11T00:28:14.355Z,927.07
2017-02-11T00:28:28.951Z,927.14
2017-02-11T00:28:43.502Z,927.16
2017-02-11T00:28:58.053Z,927.16
2017-02-11T00:29:12.549Z,927.2
2017-02-11T00:29:27.141Z,927.14
2017-02-11T00:29:41.664Z,927.12
2017-02-11T00:29:56.145Z,927.23
2017-02-11T00:30:10.709Z,927.14
2017-02-11T00:30:25.290Z,927.26
2017-02-11T00:30:39.787Z,927.14
2017-02-11T00:30:54.371Z,927.17
2017-02-11T00:31:08.908Z,927.2
2017-02-11T00:31:23.447Z,927.15
2017-02-11T00:31:38.052Z,927.15
2017-02-11T00:31:52.587Z,927.15
2017-02-11T00:32:07.091Z,927.15
2017-02-11T00:32:21.604Z,927.26
2017-02-11T00:32:36.144Z,927.26
2017-02-11T00:32:50.711Z,927.22
2017-02-11T00:33:05.207Z,927.17
2017-02-11T00:33:19.750Z,927.21
2017-02-11T00:33:34.252Z,927.17
2017-02-11T00:33:48.819Z,927.17
2017-02-11T00:34:03.388Z,927.14
2017-02-11T00:34:18.228Z,927.17
2017-02-11T00:34:32.773Z,927.17
2017-02-11T00:34:47.308Z,927.18
2017-02-11T00:35:01.891Z,927.18
2017-02-11T00:35:16.459Z,927.17
2017-02-11T00:35:30.985Z,927.15
2017-02-11T00:35:45.515Z,927.23
2017-02-11T00:36:00.087Z,927.23
2017-02-11T00:36:14.644Z,927.19
2017-02-11T00:36:29.252Z,927.21
2017-02-11T00:36:43.809Z,927.16
2017-02-11T00:36:58.364Z,927.18
2017-02-11T00:37:12.936Z,927.22
2017-02-11T00:37:27.514Z,927.17
2017-02-11T00:37:42.035Z,927.18
2017-02-11T00:37:56.581Z,927.18
2017-02-11T00:38:11.133Z,927.23
2017-02-11T00:38:25.672Z,927.22
2017-02-11T00:38:40.182Z,927.18
2017-02-11T00:38:54.760Z,927.2
2017-02-11T00:39:09.260Z,927.22
2017-02-11T00:39:23.885Z,927.25
2017-02-11T00:39:38.417Z,927.21
2017-02-11T00:39:52.927Z,927.23
2017-02-11T00:40:07.508Z,927.22
2017-02-11T00:40:22.083Z,927.23
2017-02-11T00:40:36.615Z,927.2
2017-02-11T00:40:51.151Z,927.23
2017-02-11T00:41:05.658Z,927.26
2017-02-11T00:41:20.196Z,927.21
2017-02-11T00:41:34.725Z,927.24
2017-02-11T00:41:49.282Z,927.25
2017-02-11T00:42:03.774Z,927.24
2017-02-11T00:42:18.292Z,927.26
2017-02-11T00:42:32.864Z,927.32
2017-02-11T00:42:47.372Z,927.27
2017-02-11T00:43:01.957Z,927.26
2017-02-11T00:43:16.513Z,927.28
2017-02-11T00:43:31.032Z,927.3
2017-02-11T00:43:45.594Z,927.28
2017-02-11T00:44:00.116Z,927.28
2017-02-11T00:44:14.636Z,927.3
2017-02-11T00:44:29.200Z,927.29
2017-02-11T00:44:43.798Z,927.3
2017-02-11T00:44:58.339Z,927.24
2017-02-11T00:45:12.872Z,927.29
2017-02-11T00:45:27.411Z,927.26
2017-02-11T00:45:41.950Z,927.25
2017-02-11T00:45:56.445Z,927.28
2017-02-11T00:46:11.007Z,927.25
2017-02-11T00:46:25.534Z,927.26
2017-02-11T00:46:40.124Z,927.24
2017-02-11T00:46:55.252Z,927.25
2017-02-11T00:47:09.758Z,927.25
2017-02-11T00:47:24.311Z,927.22
2017-02-11T00:47:38.883Z,927.23
2017-02-11T00:47:53.549Z,927.22
2017-02-11T00:48:08.099Z,927.28
2017-02-11T00:48:22.660Z,927.24
2017-02-11T00:48:37.257Z,927.28
2017-02-11T00:48:51.805Z,927.22
2017-02-11T00:49:06.418Z,927.25
2017-02-11T00:49:21.308Z,927.25
2017-02-11T00:49:35.864Z,927.24
2017-02-11T00:49:50.394Z,927.25
2017-02-11T00:50:04.992Z,927.28
2017-02-11T00:50:19.550Z,927.23
2017-02-11T00:50:34.083Z,927.24
2017-02-11T00:50:48.634Z,927.24
2017-02-11T00:51:03.223Z,927.31
2017-02-11T00:51:17.776Z,927.23
2017-02-11T00:51:32.334Z,927.29
2017-02-11T00:51:46.869Z,927.28
2017-02-11T00:52:01.430Z,927.28
2017-02-11T00:52:16.002Z,927.25
2017-02-11T00:52:30.551Z,927.23
2017-02-11T00:52:45.116Z,927.25
2017-02-11T00:52:59.673Z,927.22
2017-02-11T00:53:14.310Z,927.28
2017-02-11T00:53:28.877Z,927.24
2017-02-11T00:53:43.405Z,927.3
2017-02-11T00:53:57.992Z,927.28
2017-02-11T00:54:12.570Z,927.24
2017-02-11T00:54:27.103Z,927.23
2017-02-11T00:54:41.704Z,927.26
2017-02-11T00:54:56.325Z,927.27
2017-02-11T00:55:10.826Z,927.26
2017-02-11T00:55:25.357Z,927.23
2017-02-11T00:55:39.881Z,927.23
2017-02-11T00:55:54.454Z,927.26
2017-02-11T00:56:08.989Z,927.27
2017-02-11T00:56:23.497Z,927.24
2017-02-11T00:56:38.048Z,927.27
2017-02-11T00:56:52.557Z,927.26
2017-02-11T00:57:07.128Z,927.22
2017-02-11T00:57:21.610Z,927.22
2017-02-11T00:57:36.105Z,927.25
2017-02-11T00:57:50.660Z,927.21
2017-02-11T00:58:05.152Z,927.21
2017-02-11T00:58:19.678Z,927.25
2017-02-11T00:58:34.204Z,927.22
2017-02-11T00:58:48.747Z,927.26
2017-02-11T00:59:03.245Z,927.24
2017-02-11T00:59:17.836Z,927.23
2017-02-11T00:59:32.430Z,927.24
2017-02-11T00:59:46.988Z,927.22
2017-02-11T01:00:01.524Z,927.27
2017-02-11T01:00:16.049Z,927.27
2017-02-11T01:00:30.593Z,927.29
2017-02-11T01:00:45.160Z,927.26
2017-02-11T01:00:59.683Z,927.26
2017-02-11T01:01:14.265Z,927.28
2017-02-11T01:01:28.836Z,927.25
2017-02-11T01:01:43.479Z,927.28
2017-02-11T01:01:58.054Z,927.26
2017-02-11T01:02:12.637Z,927.27
2017-02-11T01:02:27.202Z,927.29
2017-02-11T01:02:41.730Z,927.3
2017-02-11T01:02:56.278Z,927.29
2017-02-11T01:03:10.895Z,927.32
2017-02-11T01:03:25.456Z,927.29
2017-02-11T01:03:39.980Z,927.34
2017-02-11T01:03:54.574Z,927.33
2017-02-11T01:04:09.196Z,927.35
2017-02-11T01:04:23.976Z,927.34
2017-02-11T01:04:38.500Z,927.38
2017-02-11T01:04:53.056Z,927.33
2017-02-11T01:05:07.608Z,927.33
2017-02-11T01:05:22.120Z,927.34
2017-02-11T01:05:36.707Z,927.34
2017-02-11T01:05:51.243Z,927.33
2017-02-11T01:06:05.799Z,927.32
2017-02-11T01:06:20.398Z,927.33
2017-02-11T01:06:35.001Z,927.33
2017-02-11T01:06:49.551Z,927.4
2017-02-11T01:07:04.147Z,927.32
2017-02-11T01:07:18.720Z,927.34
2017-02-11T01:07:33.339Z,927.38
2017-02-11T01:07:47.929Z,927.4
2017-02-11T01:08:02.487Z,927.35
2017-02-11T01:08:17.087Z,927.32
2017-02-11T01:08:31.694Z,927.33
2017-02-11T01:08:46.276Z,927.35
2017-02-11T01:09:00.831Z,927.36
2017-02-11T01:09:15.339Z,927.33
2017-02-11T01:09:29.882Z,927.36
2017-02-11T01:09:44.463Z,927.37
2017-02-11T01:09:58.962Z,927.34
2017-02-11T01:10:13.500Z,927.3
2017-02-11T01:10:28.097Z,927.34
2017-02-11T01:10:42.620Z,927.29
2017-02-11T01:10:57.293Z,927.34
2017-02-11T01:11:11.850Z,927.3
2017-02-11T01:11:26.429Z,927.32
2017-02-11T01:11:40.974Z,927.32
2017-02-11T01:11:55.542Z,927.31
2017-02-11T01:12:10.119Z,927.33
2017-02-11T01:12:24.617Z,927.35
2017-02-11T01:12:39.327Z,927.3
2017-02-11T01:12:53.918Z,927.3
2017-02-11T01:13:08.402Z,927.32
2017-02-11T01:13:22.966Z,927.33
2017-02-11T01:13:37.570Z,927.27
2017-02-11T01:13:52.107Z,927.29
2017-02-11T01:14:06.724Z,927.29
2017-02-11T01:14:21.535Z,927.27
2017-02-11T01:14:36.113Z,927.26
2017-02-11T01:14:50.705Z,927.3
2017-02-11T01:15:05.229Z,927.32
2017-02-11T01:15:19.883Z,927.29
2017-02-11T01:15:34.426Z,927.28
2017-02-11T01:15:48.888Z,927.27
2017-02-11T01:16:03.432Z,927.33
2017-02-11T01:16:17.978Z,927.33
2017-02-11T01:16:32.511Z,927.31
2017-02-11T01:16:47.065Z,927.34
2017-02-11T01:17:01.614Z,927.34
2017-02-11T01:17:16.193Z,927.28
2017-02-11T01:17:30.767Z,927.31
2017-02-11T01:17:45.351Z,927.33
2017-02-11T01:17:59.950Z,927.34
2017-02-11T01:18:14.489Z,927.35
2017-02-11T01:18:29.012Z,927.36
2017-02-11T01:18:43.570Z,927.45
2017-02-11T01:18:58.109Z,927.38
2017-02-11T01:19:12.614Z,927.4
2017-02-11T01:19:27.124Z,927.41
2017-02-11T01:19:41.849Z,927.38
2017-02-11T01:19:56.382Z,927.37
2017-02-11T01:20:10.939Z,927.41
2017-02-11T01:20:25.461Z,927.37
2017-02-11T01:20:39.997Z,927.43
2017-02-11T01:20:54.570Z,927.41
2017-02-11T01:21:09.106Z,927.4
2017-02-11T01:21:23.641Z,927.42
2017-02-11T01:21:38.222Z,927.41
2017-02-11T01:21:52.765Z,927.45
2017-02-11T01:22:07.310Z,927.42
2017-02-11T01:22:21.881Z,927.42
2017-02-11T01:22:36.409Z,927.4
2017-02-11T01:22:50.934Z,927.41
2017-02-11T01:23:05.527Z,927.4
2017-02-11T01:23:20.059Z,927.44
2017-02-11T01:23:34.579Z,927.44
2017-02-11T01:23:49.123Z,927.39
2017-02-11T01:24:03.709Z,927.47
2017-02-11T01:24:18.307Z,927.46
2017-02-11T01:24:32.845Z,927.46
2017-02-11T01:24:47.446Z,927.43
2017-02-11T01:25:01.953Z,927.42
2017-02-11T01:25:16.446Z,927.42
2017-02-11T01:25:31.179Z,927.46
2017-02-11T01:25:45.735Z,927.44
2017-02-11T01:26:00.279Z,927.43
2017-02-11T01:26:14.779Z,927.47
2017-02-11T01:26:29.334Z,927.44
2017-02-11T01:26:43.919Z,927.45
2017-02-11T01:26:58.433Z,927.46
2017-02-11T01:27:13.014Z,927.44
2017-02-11T01:27:27.560Z,927.44
2017-02-11T01:27:42.040Z,927.44
2017-02-11T01:27:56.587Z,927.5
2017-02-11T01:28:11.112Z,927.46
2017-02-11T01:28:25.697Z,927.46
2017-02-11T01:28:40.267Z,927.47
2017-02-11T01:28:54.857Z,927.5
2017-02-11T01:29:09.407Z,927.44
2017-02-11T01:29:23.948Z,927.5
2017-02-11T01:29:38.544Z,927.47
2017-02-11T01:29:53.058Z,927.48
2017-02-11T01:30:07.547Z,927.46
2017-02-11T01:30:22.096Z,927.47
2017-02-11T01:30:36.630Z,927.48
2017-02-11T01:30:51.185Z,927.49
2017-02-11T01:31:05.719Z,927.48
2017-02-11T01:31:20.233Z,927.48
2017-02-11T01:31:34.813Z,927.46
2017-02-11T01:31:49.372Z,927.43
2017-02-11T01:32:03.884Z,927.47
2017-02-11T01:32:18.448Z,927.51
2017-02-11T01:32:32.968Z,927.52
2017-02-11T01:32:47.512Z,927.5
2017-02-11T01:33:02.077Z,927.51
2017-02-11T01:33:16.639Z,927.52
2017-02-11T01:33:31.179Z,927.52
2017-02-11T01:33:45.752Z,927.52
2017-02-11T01:34:00.336Z,927.5
2017-02-11T01:34:14.844Z,927.55
2017-02-11T01:34:29.418Z,927.57
2017-02-11T01:34:44.128Z,927.51
2017-02-11T01:34:58.667Z,927.55
2017-02-11T01:35:13.259Z,927.52
2017-02-11T01:35:27.795Z,927.55
2017-02-11T01:35:42.316Z,927.58
2017-02-11T01:35:56.954Z,927.58
2017-02-11T01:36:11.498Z,927.59
2017-02-11T01:36:26.026Z,927.58
2017-02-11T01:36:40.596Z,927.61
2017-02-11T01:36:55.075Z,927.55
2017-02-11T01:37:09.627Z,927.59
2017-02-11T01:37:24.216Z,927.64
2017-02-11T01:37:38.756Z,927.6
2017-02-11T01:37:53.334Z,927.6
2017-02-11T01:38:07.938Z,927.62
2017-02-11T01:38:22.491Z,927.63
2017-02-11T01:38:37.017Z,927.63
2017-02-11T01:38:51.539Z,927.61
2017-02-11T01:39:06.080Z,927.62
2017-02-11T01:39:20.660Z,927.64
2017-02-11T01:39:35.262Z,927.67
2017-02-11T01:39:49.815Z,927.65
2017-02-11T01:40:04.372Z,927.63
2017-02-11T01:40:18.924Z,927.66
2017-02-11T01:40:33.474Z,927.64
2017-02-11T01:40:48.059Z,927.65
2017-02-11T01:41:02.580Z,927.67
2017-02-11T01:41:17.092Z,927.65
2017-02-11T01:41:31.711Z,927.68
2017-02-11T01:41:46.266Z,927.68
2017-02-11T01:42:00.893Z,927.64
2017-02-11T01:42:15.455Z,927.67
2017-02-11T01:42:30.004Z,927.64
2017-02-11T01:42:44.551Z,927.67
2017-02-11T01:42:59.077Z,927.68
2017-02-11T01:43:13.597Z,927.68
2017-02-11T01:43:28.346Z,927.67
2017-02-11T01:43:42.873Z,927.65
2017-02-11T01:43:57.436Z,927.69
2017-02-11T01:44:11.963Z,927.66
2017-02-11T01:44:26.546Z,927.68
2017-02-11T01:44:41.061Z,927.66
2017-02-11T01:44:55.590Z,927.68
2017-02-11T01:45:10.114Z,927.67
2017-02-11T01:45:24.619Z,927.68
2017-02-11T01:45:39.252Z,927.7
2017-02-11T01:45:53.857Z,927.69
2017-02-11T01:46:08.431Z,927.71
2017-02-11T01:46:22.966Z,927.7
2017-02-11T01:46:37.535Z,927.69
2017-02-11T01:46:52.119Z,927.71
2017-02-11T01:47:06.642Z,927.68
2017-02-11T01:47:21.199Z,927.71
2017-02-11T01:47:35.751Z,927.71
2017-02-11T01:47:50.261Z,927.71
2017-02-11T01:48:04.813Z,927.7
2017-02-11T01:48:19.362Z,927.69
2017-02-11T01:48:33.921Z,927.67
2017-02-11T01:48:48.511Z,927.67
2017-02-11T01:49:03.039Z,927.66
2017-02-11T01:49:17.556Z,927.64
2017-02-11T01:49:32.077Z,927.63
2017-02-11T01:49:46.980Z,927.65
2017-02-11T01:50:01.521Z,927.63
2017-02-11T01:50:16.061Z,927.61
2017-02-11T01:50:30.556Z,927.64
2017-02-11T01:50:45.076Z,927.66
2017-02-11T01:50:59.577Z,927.64
2017-02-11T01:51:14.119Z,927.62
2017-02-11T01:51:28.704Z,927.62
2017-02-11T01:51:43.314Z,927.69
2017-02-11T01:51:57.863Z,927.66
2017-02-11T01:52:12.421Z,927.67
2017-02-11T01:52:26.975Z,927.61
2017-02-11T01:52:41.499Z,927.65
2017-02-11T01:52:56.099Z,927.67
2017-02-11T01:53:10.649Z,927.61
2017-02-11T01:53:25.228Z,927.61
2017-02-11T01:53:39.815Z,927.62
2017-02-11T01:53:54.432Z,927.6
2017-02-11T01:54:09.038Z,927.64
2017-02-11T01:54:23.588Z,927.6
2017-02-11T01:54:38.173Z,927.62
2017-02-11T01:54:52.667Z,927.62
2017-02-11T01:55:07.157Z,927.6
2017-02-11T01:55:21.695Z,927.62
2017-02-11T01:55:36.256Z,927.58
2017-02-11T01:55:50.804Z,927.59
2017-02-11T01:56:05.377Z,927.56
2017-02-11T01:56:19.924Z,927.6
2017-02-11T01:56:34.508Z,927.63
2017-02-11T01:56:49.043Z,927.59
2017-02-11T01:57:03.594Z,927.58
2017-02-11T01:57:18.120Z,927.58
2017-02-11T01:57:32.717Z,927.6
2017-02-11T01:57:47.275Z,927.59
2017-02-11T01:58:01.855Z,927.62
2017-02-11T01:58:16.457Z,927.61
2017-02-11T01:58:31.038Z,927.61
2017-02-11T01:58:45.554Z,927.61
2017-02-11T01:59:00.170Z,927.65
2017-02-11T01:59:14.665Z,927.61
2017-02-11T01:59:29.205Z,927.63
2017-02-11T01:59:43.740Z,927.59
2017-02-11T01:59:58.338Z,927.65
2017-02-11T02:00:12.919Z,927.67
2017-02-11T02:00:27.503Z,927.68
2017-02-11T02:00:42.076Z,927.67
2017-02-11T02:00:56.642Z,927.62
2017-02-11T02:01:11.178Z,927.61
2017-02-11T02:01:25.716Z,927.64
2017-02-11T02:01:40.259Z,927.64
2017-02-11T02:01:54.843Z,927.63
2017-02-11T02:02:09.467Z,927.69
2017-02-11T02:02:24.000Z,927.68
2017-02-11T02:02:38.496Z,927.65
2017-02-11T02:02:53.023Z,927.67
2017-02-11T02:03:07.558Z,927.67
2017-02-11T02:03:22.131Z,927.69
2017-02-11T02:03:36.673Z,927.69
2017-02-11T02:03:51.203Z,927.68
2017-02-11T02:04:05.762Z,927.7
2017-02-11T02:04:20.362Z,927.73
2017-02-11T02:04:34.916Z,927.7
2017-02-11T02:04:49.690Z,927.66
2017-02-11T02:05:04.239Z,927.69
2017-02-11T02:05:18.755Z,927.7
2017-02-11T02:05:33.364Z,927.72
2017-02-11T02:05:47.857Z,927.73
2017-02-11T02:06:02.417Z,927.72
2017-02-11T02:06:16.961Z,927.68
2017-02-11T02:06:31.509Z,927.7
2017-02-11T02:06:46.076Z,927.72
2017-02-11T02:07:00.703Z,927.72
2017-02-11T02:07:15.244Z,927.7
2017-02-11T02:07:29.807Z,927.73
2017-02-11T02:07:44.340Z,927.7
2017-02-11T02:07:58.872Z,927.65
2017-02-11T02:08:13.624Z,927.68
2017-02-11T02:08:28.150Z,927.64
2017-02-11T02:08:42.725Z,927.63
2017-02-11T02:08:57.250Z,927.65
2017-02-11T02:09:11.755Z,927.66
2017-02-11T02:09:26.298Z,927.65
2017-02-11T02:09:40.858Z,927.66
2017-02-11T02:09:55.351Z,927.67
2017-02-11T02:10:09.941Z,927.7
2017-02-11T02:10:24.502Z,927.66
2017-02-11T02:10:39.135Z,927.66
2017-02-11T02:10:53.706Z,927.66
2017-02-11T02:11:08.228Z,927.66
2017-02-11T02:11:22.807Z,927.68
2017-02-11T02:11:37.374Z,927.67
2017-02-11T02:11:51.957Z,927.66
2017-02-11T02:12:06.502Z,927.65
2017-02-11T02:12:21.117Z,927.62
2017-02-11T02:12:35.693Z,927.62
2017-02-11T02:12:50.299Z,927.61
2017-02-11T02:13:04.886Z,927.64
2017-02-11T02:13:19.461Z,927.64
2017-02-11T02:13:34.007Z,927.66
2017-02-11T02:13:48.503Z,927.63
2017-02-11T02:14:03.064Z,927.63
2017-02-11T02:14:17.683Z,927.65
2017-02-11T02:14:32.232Z,927.67
2017-02-11T02:14:46.778Z,927.67
2017-02-11T02:15:01.358Z,927.67
2017-02-11T02:15:15.932Z,927.6
2017-02-11T02:15:30.517Z,927.66
2017-02-11T02:15:45.062Z,927.62
2017-02-11T02:15:59.632Z,927.63
2017-02-11T02:16:14.159Z,927.63
2017-02-11T02:16:28.681Z,927.62
2017-02-11T02:16:43.265Z,927.63
2017-02-11T02:16:57.829Z,927.63
2017-02-11T02:17:12.403Z,927.6
2017-02-11T02:17:26.964Z,927.64
2017-02-11T02:17:41.519Z,927.6
2017-02-11T02:17:56.061Z,927.62
2017-02-11T02:18:10.597Z,927.62
2017-02-11T02:18:25.143Z,927.6
2017-02-11T02:18:39.732Z,927.59
2017-02-11T02:18:54.287Z,927.57
2017-02-11T02:19:08.813Z,927.63
2017-02-11T02:19:23.348Z,927.59
2017-02-11T02:19:37.886Z,927.61
2017-02-11T02:19:52.426Z,927.56
2017-02-11T02:20:07.243Z,927.56
2017-02-11T02:20:21.775Z,927.58
2017-02-11T02:20:36.390Z,927.54
2017-02-11T02:20:50.933Z,927.56
2017-02-11T02:21:05.503Z,927.58
2017-02-11T02:21:20.057Z,927.59
2017-02-11T02:21:34.574Z,927.58
2017-02-11T02:21:49.159Z,927.56
2017-02-11T02:22:03.681Z,927.53
2017-02-11T02:22:18.230Z,927.51
2017-02-11T02:22:32.784Z,927.51
2017-02-11T02:22:47.308Z,927.54
2017-02-11T02:23:01.891Z,927.54
2017-02-11T02:23:16.438Z,927.56
2017-02-11T02:23:30.982Z,927.52
2017-02-11T02:23:45.453Z,927.51
2017-02-11T02:23:59.964Z,927.52
2017-02-11T02:24:14.531Z,927.49
2017-02-11T02:24:29.083Z,927.51
2017-02-11T02:24:43.621Z,927.5
2017-02-11T02:24:58.181Z,927.52
2017-02-11T02:25:12.694Z,927.49
2017-02-11T02:25:27.207Z,927.5
2017-02-11T02:25:41.735Z,927.49
2017-02-11T02:25:56.263Z,927.54
2017-02-11T02:26:10.797Z,927.5
2017-02-11T02:26:25.315Z,927.49
2017-02-11T02:26:39.867Z,927.49
2017-02-11T02:26:54.412Z,927.5
2017-02-11T02:27:08.978Z,927.48
2017-02-11T02:27:23.547Z,927.48
2017-02-11T02:27:38.098Z,927.49
2017-02-11T02:27:52.634Z,927.49
2017-02-11T02:28:07.220Z,927.45
2017-02-11T02:28:21.710Z,927.48
2017-02-11T02:28:36.250Z,927.43
2017-02-11T02:28:50.799Z,927.45
2017-02-11T02:29:05.370Z,927.42
2017-02-11T02:29:19.970Z,927.46
2017-02-11T02:29:34.508Z,927.44
2017-02-11T02:29:49.029Z,927.41
2017-02-11T02:30:03.536Z,927.43
2017-02-11T02:30:18.051Z,927.43
2017-02-11T02:30:32.599Z,927.43
2017-02-11T02:30:47.148Z,927.39
2017-02-11T02:31:01.713Z,927.45
2017-02-11T02:31:16.286Z,927.4
2017-02-11T02:31:30.832Z,927.43
2017-02-11T02:31:45.362Z,927.4
2017-02-11T02:31:59.851Z,927.43
2017-02-11T02:32:14.380Z,927.42
2017-02-11T02:32:28.934Z,927.38
2017-02-11T02:32:43.447Z,927.35
2017-02-11T02:32:57.992Z,927.38
2017-02-11T02:33:12.580Z,927.38
2017-02-11T02:33:27.080Z,927.4
2017-02-11T02:33:41.674Z,927.39
2017-02-11T02:33:56.221Z,927.4
2017-02-11T02:34:10.726Z,927.37
2017-02-11T02:34:25.301Z,927.37
2017-02-11T02:34:39.851Z,927.36
2017-02-11T02:34:54.419Z,927.37
2017-02-11T02:35:09.159Z,927.32
2017-02-11T02:35:23.688Z,927.32
2017-02-11T02:35:38.256Z,927.34
2017-02-11T02:35:52.828Z,927.34
2017-02-11T02:36:07.394Z,927.36
2017-02-11T02:36:21.927Z,927.37
2017-02-11T02:36:36.493Z,927.35
2017-02-11T02:36:51.001Z,927.36
2017-02-11T02:37:05.601Z,927.32
2017-02-11T02:37:20.140Z,927.3
2017-02-11T02:37:34.630Z,927.33
2017-02-11T02:37:49.202Z,927.32
2017-02-11T02:38:03.699Z,927.31
2017-02-11T02:38:18.241Z,927.31
2017-02-11T02:38:32.864Z,927.29
2017-02-11T02:38:47.457Z,927.27
2017-02-11T02:39:02.014Z,927.27
2017-02-11T02:39:16.572Z,927.27
2017-02-11T02:39:31.122Z,927.27
2017-02-11T02:39:45.687Z,927.27
2017-02-11T02:40:00.230Z,927.28
2017-02-11T02:40:14.756Z,927.23
2017-02-11T02:40:29.353Z,927.27
2017-02-11T02:40:43.920Z,927.23
2017-02-11T02:40:58.480Z,927.24
2017-02-11T02:41:13.018Z,927.27
2017-02-11T02:41:27.532Z,927.26
2017-02-11T02:41:42.120Z,927.27
2017-02-11T02:41:56.641Z,927.24
2017-02-11T02:42:11.195Z,927.26
2017-02-11T02:42:25.749Z,927.23
2017-02-11T02:42:40.269Z,927.25
2017-02-11T02:42:54.821Z,927.27
2017-02-11T02:43:09.430Z,927.26
2017-02-11T02:43:23.988Z,927.27
2017-02-11T02:43:38.509Z,927.24
2017-02-11T02:43:53.085Z,927.23
2017-02-11T02:44:07.623Z,927.26
2017-02-11T02:44:22.199Z,927.23
2017-02-11T02:44:36.773Z,927.26
2017-02-11T02:44:51.350Z,927.24
2017-02-11T02:45:05.898Z,927.23
2017-02-11T02:45:20.438Z,927.24
2017-02-11T02:45:34.953Z,927.24
2017-02-11T02:45:49.603Z,927.27
2017-02-11T02:46:04.164Z,927.24
2017-02-11T02:46:18.698Z,927.27
2017-02-11T02:46:33.257Z,927.27
2017-02-11T02:46:47.836Z,927.27
2017-02-11T02:47:02.415Z,927.25
2017-02-11T02:47:17.070Z,927.24
2017-02-11T02:47:31.646Z,927.24
2017-02-11T02:47:46.183Z,927.25
2017-02-11T02:48:00.731Z,927.24
2017-02-11T02:48:15.256Z,927.28
2017-02-11T02:48:29.781Z,927.24
2017-02-11T02:48:44.333Z,927.28
2017-02-11T02:48:58.893Z,927.28
2017-02-11T02:49:13.510Z,927.27
2017-02-11T02:49:28.122Z,927.31
2017-02-11T02:49:42.679Z,927.28
2017-02-11T02:49:57.241Z,927.25
2017-02-11T02:50:12.073Z,927.25
2017-02-11T02:50:26.593Z,927.3
2017-02-11T02:50:41.198Z,927.26
2017-02-11T02:50:55.742Z,927.27
2017-02-11T02:51:10.327Z,927.27
2017-02-11T02:51:24.908Z,927.29
2017-02-11T02:51:39.435Z,927.27
2017-02-11T02:51:53.943Z,927.28
2017-02-11T02:52:08.460Z,927.28
2017-02-11T02:52:23.013Z,927.27
2017-02-11T02:52:37.590Z,927.26
2017-02-11T02:52:52.142Z,927.26
2017-02-11T02:53:06.668Z,927.23
2017-02-11T02:53:21.190Z,927.27
2017-02-11T02:53:35.770Z,927.21
2017-02-11T02:53:50.334Z,927.25
2017-02-11T02:54:04.884Z,927.22
2017-02-11T02:54:19.497Z,927.27
2017-02-11T02:54:34.019Z,927.22
2017-02-11T02:54:48.531Z,927.25
2017-02-11T02:55:03.161Z,927.2
2017-02-11T02:55:17.939Z,927.24
2017-02-11T02:55:32.500Z,927.24
2017-02-11T02:55:47.068Z,927.21
2017-02-11T02:56:01.625Z,927.24
2017-02-11T02:56:16.188Z,927.21
2017-02-11T02:56:30.735Z,927.19
2017-02-11T02:56:45.287Z,927.19
2017-02-11T02:56:59.887Z,927.17
2017-02-11T02:57:14.415Z,927.23
2017-02-11T02:57:28.934Z,927.23
2017-02-11T02:57:43.469Z,927.23
2017-02-11T02:57:58.008Z,927.23
2017-02-11T02:58:12.581Z,927.21
2017-02-11T02:58:27.080Z,927.23
2017-02-11T02:58:41.637Z,927.16
2017-02-11T02:58:56.178Z,927.2
2017-02-11T02:59:10.753Z,927.2
2017-02-11T02:59:25.311Z,927.22
2017-02-11T02:59:39.889Z,927.15
2017-02-11T02:59:54.451Z,927.18
2017-02-11T03:00:08.980Z,927.19
2017-02-11T03:00:23.691Z,927.18
2017-02-11T03:00:38.241Z,927.16
2017-02-11T03:00:52.844Z,927.15
2017-02-11T03:01:07.412Z,927.15
2017-02-11T03:01:22.012Z,927.2
2017-02-11T03:01:36.595Z,927.15
2017-02-11T03:01:51.149Z,927.18
2017-02-11T03:02:05.685Z,927.17